Time;durP1;ratioP1;P1;durP2;ratioP2;P2;SDS_P1;SDS_P2;PMS_P1;PMS_P2;Temp;Humidity;BMP_temperature;BMP_pressure;BME280_temperature;BME280_humidity;BME280_pressure;Samples;Min_cycle;Max_cycle;Signal;HPM_P1;HPM_P2
2024/01/17 05:30:47;;;;;;;;;31.00;26.75;;;;;12.47;45.05;98790.59;5030022;28;46374;-72
2024/01/17 05:33:12;;;;;;;;;31.00;29.00;;;;;12.44;45.64;98780.94;5035725;28;45446;-72
2024/01/17 05:35:38;;;;;;;;;28.00;28.00;;;;;12.48;45.30;98763.59;5035716;28;45577;-71
2024/01/17 05:38:03;;;;;;;;;24.50;22.25;;;;;12.52;45.64;98770.41;5055611;28;46013;-72
2024/01/17 05:40:29;;;;;;;;;39.50;31.00;;;;;12.57;44.94;98753.03;5046505;28;45480;-73
2024/01/17 05:42:54;;;;;;;;;26.75;24.50;;;;;12.61;45.60;98763.38;5029115;28;45657;-72
2024/01/17 05:45:20;;;;;;;;;34.75;28.00;;;;;12.63;45.50;98756.03;5035472;28;51359;-72
2024/01/17 05:47:45;;;;;;;;;30.50;28.75;;;;;12.67;45.33;98746.75;5054880;28;45790;-72
2024/01/17 05:50:11;;;;;;;;;34.00;28.25;;;;;12.64;44.96;98727.31;5055464;28;45651;-72
2024/01/17 05:52:41;;;;;;;;;30.75;27.00;;;;;12.71;45.35;98723.13;5055929;28;45471;-72
2024/01/17 05:55:08;;;;;;;;;30.25;25.00;;;;;12.75;45.20;98719.19;5050790;28;45491;-71
2024/01/17 05:57:33;;;;;;;;;27.75;25.50;;;;;12.80;45.32;98714.25;5035755;28;46220;-72
2024/01/17 05:59:59;;;;;;;;;29.75;26.00;;;;;12.75;45.17;98693.16;5035182;28;45391;-72
2024/01/17 06:02:24;;;;;;;;;26.00;26.00;;;;;12.77;45.14;98688.47;5035249;28;45519;-72
2024/01/17 06:04:49;;;;;;;;;22.50;21.25;;;;;12.81;44.76;98684.56;5035199;28;46020;-71
2024/01/17 06:07:15;;;;;;;;;28.00;21.75;;;;;12.89;45.16;98681.19;5034805;28;55181;-71
2024/01/17 06:09:43;;;;;;;;;32.00;24.75;;;;;12.86;44.96;98660.78;5038064;28;45380;-72
2024/01/17 06:12:09;;;;;;;;;25.50;23.25;;;;;12.86;45.23;98663.47;5035240;28;45348;-72
2024/01/17 06:14:35;;;;;;;;;22.75;22.50;;;;;12.86;45.02;98652.72;5035075;28;45242;-70
2024/01/17 06:17:00;;;;;;;;;20.25;20.25;;;;;12.90;45.01;98656.00;5034880;28;46209;-71
2024/01/17 06:19:25;;;;;;;;;28.25;23.25;;;;;12.78;45.41;98624.78;5034740;28;45337;-73
2024/01/17 06:21:51;;;;;;;;;23.50;22.00;;;;;12.79;45.12;98616.59;5034778;28;45246;-69
2024/01/17 06:24:16;;;;;;;;;20.00;17.00;;;;;12.92;45.27;98634.34;5035079;28;45516;-71
2024/01/17 06:26:41;;;;;;;;;25.50;23.50;;;;;12.69;44.99;98585.28;5037279;28;54244;-77
2024/01/17 06:29:07;;;;;;;;;18.25;18.25;;;;;12.94;44.86;98608.13;5037122;28;45420;-71
2024/01/17 06:31:32;;;;;;;;;23.75;22.00;;;;;12.89;44.83;98603.19;5034749;28;45380;-71
2024/01/17 06:33:58;;;;;;;;;22.50;22.50;;;;;12.80;45.00;98595.94;5034351;28;45581;-72
2024/01/17 06:36:24;;;;;;;;;22.00;21.00;;;;;12.74;45.35;98583.91;5034835;28;45998;-73
2024/01/17 06:38:49;;;;;;;;;19.00;19.00;;;;;12.73;45.76;98581.34;5039650;28;45573;-75
2024/01/17 06:41:14;;;;;;;;;20.00;20.00;;;;;12.76;45.66;98568.47;5037235;28;45371;-72
2024/01/17 06:43:40;;;;;;;;;19.00;19.00;;;;;12.82;45.14;98570.63;5035549;28;55529;-79
2024/01/17 06:46:08;;;;;;;;;27.25;20.00;;;;;12.64;45.64;98545.38;5035972;28;46303;-82
2024/01/17 06:48:33;;;;;;;;;16.75;16.75;;;;;12.70;45.63;98552.88;5035689;28;45397;-79
2024/01/17 06:50:58;;;;;;;;;20.25;18.50;;;;;12.71;45.69;98554.59;5036363;28;49494;-75
2024/01/17 06:53:24;;;;;;;;;19.00;15.75;;;;;12.67;45.47;98534.38;5034179;28;45522;-74
2024/01/17 06:55:49;;;;;;;;;19.50;18.50;;;;;12.65;46.07;98530.97;5036473;28;46543;-74
2024/01/17 06:58:14;;;;;;;;;18.25;18.25;;;;;12.71;45.97;98540.31;5034587;28;45450;-75
2024/01/17 07:00:41;;;;;;;;;18.75;15.50;;;;;12.66;45.90;98531.81;5034239;28;45571;-76
2024/01/17 07:03:07;;;;;;;;;15.50;10.00;;;;;12.68;45.98;98530.66;5034118;28;46150;-75
2024/01/17 07:05:32;;;;;;;;;21.00;18.00;;;;;12.59;46.08;98509.97;5034537;28;46011;-73
2024/01/17 07:07:57;;;;;;;;;19.00;17.75;;;;;12.80;46.13;98536.78;5034253;28;45394;-75
2024/01/17 07:10:25;;;;;;;;;16.25;15.00;;;;;12.82;46.08;98551.81;5033263;28;45874;-73
2024/01/17 07:12:51;;;;;;;;;15.00;14.25;;;;;12.89;46.46;98552.09;5031235;28;45479;-73
2024/01/17 07:15:17;;;;;;;;;18.50;18.50;;;;;12.94;46.13;98544.44;5033916;28;46089;-76
2024/01/17 07:17:42;;;;;;;;;19.50;15.00;;;;;12.97;45.75;98537.94;5037453;28;45238;-72
2024/01/17 07:20:10;;;;;;;;;17.00;16.75;;;;;12.97;46.40;98529.88;5054427;28;45311;-73
2024/01/17 07:22:41;;;;;;;;;17.25;17.25;;;;;12.88;45.93;98486.69;5035084;28;45626;-75
2024/01/17 07:25:08;;;;;;;;;22.00;19.25;;;;;12.99;46.46;98488.41;5040501;28;45567;-76
2024/01/17 07:27:33;;;;;;;;;14.75;13.25;;;;;13.01;45.91;98490.97;5032029;28;45923;-73
2024/01/17 07:29:58;;;;;;;;;16.50;16.50;;;;;12.87;46.27;98465.31;5034121;28;45402;-77
2024/01/17 07:32:24;;;;;;;;;19.75;16.00;;;;;13.02;46.50;98493.50;5021876;28;48704;-77
2024/01/17 07:34:49;;;;;;;;;14.50;14.50;;;;;12.95;46.62;98472.69;5033402;28;47116;-76
2024/01/17 07:37:14;;;;;;;;;17.75;17.75;;;;;13.08;46.35;98492.97;5033573;28;45575;-74
2024/01/17 07:39:40;;;;;;;;;14.75;14.25;;;;;13.08;46.45;98476.81;5031922;28;49697;-77
2024/01/17 07:42:05;;;;;;;;;14.50;14.50;;;;;13.10;46.28;98466.75;5029166;28;45380;-75
2024/01/17 07:44:32;;;;;;;;;15.00;13.25;;;;;13.05;46.13;98455.56;5033604;28;45491;-75
2024/01/17 07:46:58;;;;;;;;;18.50;15.25;;;;;13.02;46.73;98433.47;5033867;28;45401;-76
2024/01/17 07:49:23;;;;;;;;;15.50;15.50;;;;;12.96;46.72;98410.69;5034923;28;45368;-77
2024/01/17 07:51:49;;;;;;;;;14.00;13.25;;;;;12.94;46.37;98427.94;5035320;28;45548;-75
2024/01/17 07:54:16;;;;;;;;;14.75;14.00;;;;;13.06;46.88;98434.91;5035765;28;45457;-76
2024/01/17 07:56:42;;;;;;;;;17.25;15.75;;;;;12.97;46.68;98441.13;5017601;28;45486;-75
2024/01/17 07:59:07;;;;;;;;;16.25;16.25;;;;;12.98;47.10;98450.91;5037147;28;45253;-75
2024/01/17 08:01:34;;;;;;;;;17.75;13.25;;;;;13.04;46.66;98450.31;5037644;28;45205;-75
2024/01/17 08:03:59;;;;;;;;;16.50;15.00;;;;;13.13;46.49;98461.13;5035706;28;47776;-75
2024/01/17 08:06:25;;;;;;;;;19.75;14.25;;;;;13.10;46.67;98439.84;5037015;28;45200;-73
2024/01/17 08:08:50;;;;;;;;;16.75;15.50;;;;;13.07;46.70;98432.06;5037258;28;45242;-74
2024/01/17 08:11:15;;;;;;;;;13.50;12.75;;;;;13.08;46.76;98406.03;5036497;28;52077;-74
2024/01/17 08:13:40;;;;;;;;;17.00;12.00;;;;;13.20;46.33;98411.13;5036319;28;46027;-73
2024/01/17 08:16:06;;;;;;;;;13.00;13.00;;;;;13.07;46.77;98389.03;5024129;28;57539;-75
2024/01/17 08:18:31;;;;;;;;;14.75;14.75;;;;;13.16;46.68;98393.59;5036436;28;45346;-75
2024/01/17 08:20:57;;;;;;;;;17.00;17.00;;;;;13.21;46.68;98377.84;5035876;28;58427;-74
2024/01/17 08:23:23;;;;;;;;;14.50;14.50;;;;;13.21;46.56;98371.63;5036576;28;47708;-74
2024/01/17 08:25:48;;;;;;;;;14.00;12.00;;;;;13.22;46.37;98363.41;5036821;28;45313;-76
2024/01/17 08:28:13;;;;;;;;;14.50;11.75;;;;;13.23;46.61;98361.56;5025501;28;45455;-75
2024/01/17 08:30:38;;;;;;;;;13.75;12.25;;;;;13.28;46.64;98359.28;5034449;28;59635;-76
2024/01/17 08:33:04;;;;;;;;;15.00;14.00;;;;;13.29;46.85;98362.81;5026209;28;46867;-76
2024/01/17 08:35:30;;;;;;;;;10.25;10.25;;;;;13.37;47.20;98374.56;5049528;28;45452;-74
2024/01/17 08:37:55;;;;;;;;;14.75;11.50;;;;;13.38;46.66;98362.78;5056733;28;45349;-74
2024/01/17 08:40:21;;;;;;;;;18.50;15.00;;;;;13.36;47.04;98347.78;5050467;28;46580;-76
2024/01/17 08:42:46;;;;;;;;;16.00;15.00;;;;;13.34;47.29;98337.19;5055615;28;50338;-75
2024/01/17 08:45:12;;;;;;;;;11.00;11.00;;;;;13.32;46.70;98309.56;5055621;28;45501;-75
2024/01/17 08:47:38;;;;;;;;;16.00;13.25;;;;;13.38;46.82;98310.81;5056311;28;45248;-75
2024/01/17 08:50:04;;;;;;;;;17.25;14.75;;;;;13.43;46.79;98320.16;5055971;28;45335;-76
2024/01/17 08:52:30;;;;;;;;;15.75;14.00;;;;;13.45;46.79;98314.59;5055621;28;45438;-75
2024/01/17 08:54:56;;;;;;;;;12.00;11.00;;;;;13.33;46.95;98278.13;5051539;28;45700;-74
2024/01/17 08:57:21;;;;;;;;;10.25;10.25;;;;;13.46;47.13;98297.47;5043170;28;45415;-76
2024/01/17 08:59:46;;;;;;;;;11.50;11.50;;;;;13.50;46.85;98288.97;5056284;28;45458;-75
2024/01/17 09:02:12;;;;;;;;;15.00;12.00;;;;;13.51;46.91;98279.91;5056465;28;45358;-76
2024/01/17 09:04:37;;;;;;;;;12.00;10.75;;;;;13.51;46.88;98287.97;5055693;28;45657;-74
2024/01/17 09:07:02;;;;;;;;;10.25;10.25;;;;;13.54;46.62;98300.25;5056423;28;45387;-75
2024/01/17 09:09:28;;;;;;;;;17.50;11.50;;;;;13.48;46.99;98282.03;5055956;28;45517;-77
2024/01/17 09:11:54;;;;;;;;;10.50;10.50;;;;;13.51;47.06;98271.81;5042711;28;46145;-75
2024/01/17 09:14:21;;;;;;;;;10.25;10.25;;;;;13.60;47.07;98288.91;5054124;28;45475;-75
2024/01/17 09:16:49;;;;;;;;;10.50;7.25;;;;;13.61;47.03;98269.06;5042766;28;45402;-75
2024/01/17 09:19:14;;;;;;;;;9.75;7.50;;;;;13.51;47.05;98260.19;5055359;28;45306;-75
2024/01/17 09:21:40;;;;;;;;;11.00;11.00;;;;;13.54;47.23;98265.25;5055667;28;46165;-74
2024/01/17 09:24:05;;;;;;;;;12.50;10.25;;;;;13.54;47.21;98257.19;5055022;28;59272;-76
2024/01/17 09:26:31;;;;;;;;;11.75;9.00;;;;;13.52;47.25;98245.75;5031284;28;45531;-76
2024/01/17 09:28:56;;;;;;;;;10.25;10.25;;;;;13.61;46.79;98251.06;5048537;28;45384;-76
2024/01/17 09:31:21;;;;;;;;;11.25;11.25;;;;;13.56;47.16;98206.75;5036938;28;46222;-74
2024/01/17 09:33:47;;;;;;;;;11.00;9.00;;;;;13.59;46.91;98236.91;5055200;28;45318;-75
2024/01/17 09:36:12;;;;;;;;;7.75;7.75;;;;;13.67;47.22;98236.16;5055958;28;46006;-75
2024/01/17 09:38:37;;;;;;;;;10.75;10.00;;;;;13.70;46.81;98230.47;5055781;28;45461;-74
2024/01/17 09:41:04;;;;;;;;;12.00;8.50;;;;;13.71;47.12;98237.53;5049219;28;45463;-76
2024/01/17 09:43:30;;;;;;;;;10.75;10.75;;;;;13.75;47.18;98252.41;5055338;28;45511;-75
2024/01/17 09:46:00;;;;;;;;;10.50;10.00;;;;;13.66;46.82;98221.00;5055479;28;45384;-75
2024/01/17 09:48:25;;;;;;;;;12.25;10.25;;;;;13.77;47.02;98223.50;5054886;28;45536;-75
2024/01/17 09:50:51;;;;;;;;;8.50;8.50;;;;;13.65;47.21;98197.78;5055308;28;46830;-76
2024/01/17 09:53:23;;;;;;;;;8.75;8.75;;;;;13.83;47.16;98219.34;5054939;28;45559;-76
2024/01/17 09:55:52;;;;;;;;;9.50;9.50;;;;;13.85;47.53;98223.56;5042717;28;45371;-75
2024/01/17 09:58:19;;;;;;;;;11.00;11.00;;;;;13.86;47.26;98208.28;5049608;28;45624;-76
2024/01/17 10:00:48;;;;;;;;;12.50;10.75;;;;;13.88;47.46;98196.31;5055656;28;45362;-75
2024/01/17 10:03:20;;;;;;;;;14.50;11.00;;;;;13.95;47.01;98207.34;5054763;28;45462;-76
2024/01/17 10:05:50;;;;;;;;;11.25;9.75;;;;;13.94;47.39;98192.19;5055259;28;45342;-75
2024/01/17 10:08:18;;;;;;;;;13.50;7.25;;;;;14.00;46.72;98188.88;5054776;28;45259;-76
2024/01/17 10:10:43;;;;;;;;;12.75;11.00;;;;;14.01;46.97;98212.13;5055064;28;45578;-74
2024/01/17 10:13:11;;;;;;;;;9.00;9.00;;;;;13.93;46.78;98177.03;5054767;28;45454;-75
2024/01/17 10:15:42;;;;;;;;;11.75;8.75;;;;;13.95;47.19;98165.06;5054524;28;45465;-75
2024/01/17 10:18:09;;;;;;;;;10.75;9.50;;;;;14.05;47.18;98188.38;5036410;28;45563;-75
2024/01/17 10:20:35;;;;;;;;;10.75;10.50;;;;;13.98;47.30;98172.84;5048563;28;45390;-75
2024/01/17 10:23:00;;;;;;;;;10.00;7.00;;;;;13.95;47.72;98165.06;5036785;28;45467;-75
2024/01/17 10:25:25;;;;;;;;;7.00;6.00;;;;;14.01;47.07;98136.69;5036664;28;45381;-75
2024/01/17 10:27:51;;;;;;;;;12.00;8.00;;;;;14.01;47.14;98124.06;5040163;28;46541;-76
2024/01/17 10:30:19;;;;;;;;;11.00;11.00;;;;;14.03;47.46;98115.84;5036530;28;46706;-75
2024/01/17 10:32:44;;;;;;;;;15.00;11.50;;;;;13.85;47.43;98099.69;5042498;28;45730;-74
2024/01/17 10:35:11;;;;;;;;;10.50;9.75;;;;;14.00;47.41;98111.59;5054991;28;45370;-75
2024/01/17 10:37:38;;;;;;;;;7.50;7.00;;;;;14.08;47.24;98088.41;5054849;28;45512;-75
2024/01/17 10:40:11;;;;;;;;;12.75;12.75;;;;;14.10;47.62;98110.66;5050622;28;45524;-74
2024/01/17 10:42:40;;;;;;;;;8.50;8.50;;;;;14.06;47.58;98103.88;5052899;28;45407;-75
2024/01/17 10:45:06;;;;;;;;;12.00;11.00;;;;;14.09;47.92;98123.28;5038794;28;45252;-75
2024/01/17 10:47:32;;;;;;;;;17.50;15.75;;;;;14.01;47.90;98089.06;5044041;28;45520;-76
2024/01/17 10:49:57;;;;;;;;;12.25;11.00;;;;;14.14;48.35;98112.03;5048281;28;46028;-75
2024/01/17 10:52:25;;;;;;;;;16.50;14.25;;;;;14.11;48.12;98099.75;5040797;28;45348;-68
2024/01/17 10:54:51;;;;;;;;;15.00;13.00;;;;;14.18;48.10;98113.41;5051362;28;45391;-71
2024/01/17 10:57:20;;;;;;;;;15.75;13.75;;;;;14.27;48.14;98109.78;5039216;28;45981;-76
2024/01/17 10:59:50;;;;;;;;;11.75;11.75;;;;;14.28;48.11;98115.03;5052502;28;47068;-77
2024/01/17 11:02:20;;;;;;;;;17.00;15.50;;;;;14.32;48.22;98086.72;5046448;28;45520;-76
2024/01/17 11:05:10;;;;;;;;;6.75;4.00;;;;;14.39;48.48;98105.84;5048841;28;45537;-79
2024/01/17 11:07:36;;;;;;;;;20.50;18.50;;;;;14.39;48.16;98095.91;5053665;28;45603;-76
2024/01/17 11:10:04;;;;;;;;;17.75;17.75;;;;;14.47;48.14;98105.03;5053525;28;45535;-78
2024/01/17 11:12:35;;;;;;;;;21.00;18.00;;;;;14.32;48.10;98053.53;5053536;28;45411;-77
2024/01/17 11:15:03;;;;;;;;;18.75;18.75;;;;;14.41;48.54;98081.44;5053699;28;45401;-78
2024/01/17 11:17:31;;;;;;;;;18.25;17.50;;;;;14.41;47.94;98113.78;5053633;28;45416;-76
2024/01/17 11:19:59;;;;;;;;;23.25;20.50;;;;;14.24;48.65;98075.06;5053540;28;45944;-77
2024/01/17 11:22:25;;;;;;;;;24.00;22.75;;;;;14.31;48.69;98052.69;5052856;28;45524;-76
2024/01/17 11:24:50;;;;;;;;;25.00;22.75;;;;;14.38;48.89;98047.50;5054016;28;45413;-77
2024/01/17 11:27:27;;;;;;;;;25.00;23.00;;;;;14.37;48.81;98065.53;5053685;28;45437;-78
2024/01/17 11:30:11;;;;;;;;;19.75;18.00;;;;;14.46;48.70;98050.28;5047003;28;45568;-76
2024/01/17 11:32:56;;;;;;;;;24.00;21.75;;;;;14.39;48.97;98027.66;5033626;28;45410;-76
2024/01/17 11:35:43;;;;;;;;;21.25;21.25;;;;;14.37;48.54;98035.88;5034246;28;45325;-78
2024/01/17 11:38:23;;;;;;;;;28.00;24.00;;;;;14.27;48.94;98008.22;5034421;28;45376;-77
2024/01/17 11:40:56;;;;;;;;;26.75;24.00;;;;;14.26;49.30;98024.53;5032083;28;45564;-82
2024/01/17 11:43:21;;;;;;;;;32.00;28.50;;;;;14.30;49.42;98015.13;5016819;28;45293;-76
2024/01/17 11:45:50;;;;;;;;;25.00;25.00;;;;;14.35;49.23;98029.81;5038262;28;45504;-76
2024/01/17 11:48:28;;;;;;;;;26.50;25.25;;;;;14.28;49.31;98007.22;5035852;28;45360;-76
2024/01/17 11:50:54;;;;;;;;;29.50;25.75;;;;;14.45;48.75;98024.34;5037056;28;45410;-77
2024/01/17 11:53:23;;;;;;;;;26.25;22.75;;;;;14.48;48.70;98010.53;5036740;28;45398;-71
2024/01/17 11:55:49;;;;;;;;;26.50;22.25;;;;;14.59;48.72;98017.50;5039039;28;45423;-71
2024/01/17 11:58:16;;;;;;;;;27.50;24.50;;;;;14.57;48.68;98022.19;5036989;28;45829;-75
2024/01/17 12:00:41;;;;;;;;;26.00;26.00;;;;;14.57;48.99;98012.25;5037016;28;45352;-76
2024/01/17 12:03:06;;;;;;;;;24.75;24.75;;;;;14.47;48.80;97992.66;5037107;28;45373;-78
2024/01/17 12:05:35;;;;;;;;;25.50;23.75;;;;;14.49;48.82;97989.81;5019959;28;46395;-76
2024/01/17 12:08:04;;;;;;;;;27.50;25.00;;;;;14.53;49.19;97977.72;5036935;28;45501;-75
2024/01/17 12:10:29;;;;;;;;;32.25;29.50;;;;;14.61;49.36;98012.78;5037053;28;47072;-79
2024/01/17 12:12:56;;;;;;;;;32.00;29.00;;;;;14.53;49.04;97988.50;5019587;28;45466;-79
2024/01/17 12:15:23;;;;;;;;;31.75;28.75;;;;;14.57;49.21;98006.88;5019415;28;45403;-75
2024/01/17 12:17:48;;;;;;;;;29.00;29.00;;;;;14.50;49.22;98004.97;5036494;28;46437;-77
2024/01/17 12:20:13;;;;;;;;;27.50;25.00;;;;;14.50;49.98;97986.13;5036912;28;45442;-74
2024/01/17 12:22:39;;;;;;;;;31.50;28.75;;;;;14.49;49.43;97979.03;5036512;28;45337;-75
2024/01/17 12:25:04;;;;;;;;;29.00;27.50;;;;;14.50;49.50;97991.50;5036870;28;45481;-74
2024/01/17 12:27:32;;;;;;;;;30.00;27.50;;;;;14.34;49.29;97982.31;5036560;28;45433;-75
2024/01/17 12:30:05;;;;;;;;;34.50;32.00;;;;;14.40;49.58;97972.75;5019007;28;46217;-75
2024/01/17 12:32:30;;;;;;;;;34.75;28.75;;;;;14.50;48.97;97980.72;5036093;28;45435;-76
2024/01/17 12:34:56;;;;;;;;;30.25;26.75;;;;;14.35;49.93;97959.75;5017924;28;45575;-72
2024/01/17 12:37:21;;;;;;;;;33.50;30.50;;;;;14.50;49.37;97978.03;5036066;28;45423;-75
2024/01/17 12:39:46;;;;;;;;;26.75;26.50;;;;;14.63;49.07;97963.06;5035445;28;45340;-77
2024/01/17 12:42:16;;;;;;;;;27.25;24.50;;;;;14.73;48.97;97968.31;5032725;28;45541;-75
2024/01/17 12:44:44;;;;;;;;;32.25;27.75;;;;;14.70;49.24;97974.91;5035802;28;45411;-75
2024/01/17 12:47:10;;;;;;;;;28.25;27.25;;;;;14.64;48.89;97972.84;5031511;28;45503;-75
2024/01/17 12:49:35;;;;;;;;;33.00;28.25;;;;;14.51;49.09;97977.03;5024576;28;46053;-75
2024/01/17 12:52:00;;;;;;;;;24.25;23.00;;;;;14.33;48.75;97963.59;5029732;28;45679;-75
2024/01/17 12:54:26;;;;;;;;;28.25;26.50;;;;;14.32;49.32;97975.38;5016908;28;45703;-76
2024/01/17 12:56:54;;;;;;;;;26.75;26.50;;;;;14.28;49.49;97961.41;5032079;28;45356;-75
2024/01/17 12:59:20;;;;;;;;;28.50;27.00;;;;;14.44;49.09;97982.22;5034705;28;46099;-75
2024/01/17 13:01:46;;;;;;;;;33.25;32.00;;;;;14.33;49.18;97977.94;5027712;28;45560;-74
2024/01/17 13:04:11;;;;;;;;;25.00;25.00;;;;;14.27;49.45;97973.19;5034841;28;45368;-73
2024/01/17 13:06:47;;;;;;;;;34.75;32.00;;;;;14.16;49.49;97984.25;5029200;28;45522;-74
2024/01/17 13:09:17;;;;;;;;;31.25;27.50;;;;;14.29;49.34;98000.00;5031725;28;46231;-73
2024/01/17 13:11:50;;;;;;;;;25.25;25.25;;;;;14.16;49.42;97995.00;5027295;28;45704;-72
2024/01/17 13:14:19;;;;;;;;;26.00;26.00;;;;;14.28;49.54;98004.53;5029226;28;45446;-75
2024/01/17 13:16:48;;;;;;;;;20.75;19.50;;;;;14.35;49.05;98010.13;5018099;28;45440;-73
2024/01/17 13:19:15;;;;;;;;;24.00;23.00;;;;;14.40;48.66;98010.50;5028219;28;45435;-72
2024/01/17 13:21:41;;;;;;;;;22.25;20.25;;;;;14.45;48.91;98007.34;5027724;28;45519;-74
2024/01/17 13:24:07;;;;;;;;;21.50;19.25;;;;;14.38;48.07;98012.47;5036131;28;45505;-74
2024/01/17 13:26:35;;;;;;;;;21.75;20.25;;;;;14.45;47.96;98031.59;5034540;28;45484;-75
2024/01/17 13:29:02;;;;;;;;;19.25;18.25;;;;;14.45;48.03;98026.19;5033840;28;46796;-76
2024/01/17 13:31:27;;;;;;;;;20.00;17.00;;;;;14.47;47.83;98025.00;5011119;28;45530;-76
2024/01/17 13:33:53;;;;;;;;;17.25;16.25;;;;;14.50;47.56;98013.91;5014640;28;45460;-74
2024/01/17 13:36:18;;;;;;;;;11.50;11.50;;;;;14.49;47.58;98016.78;5015230;28;45495;-77
2024/01/17 13:38:46;;;;;;;;;16.50;14.50;;;;;14.47;47.30;98008.84;5014259;28;45487;-74
2024/01/17 13:41:11;;;;;;;;;17.75;13.25;;;;;14.53;46.73;98016.31;5012726;28;45378;-73
2024/01/17 13:43:37;;;;;;;;;14.75;14.75;;;;;14.55;46.94;98022.34;5014635;28;45940;-75
2024/01/17 13:46:02;;;;;;;;;16.25;16.25;;;;;14.49;47.32;98014.91;5014452;28;45439;-74
2024/01/17 13:48:27;;;;;;;;;19.75;16.50;;;;;14.47;47.52;97997.22;5012538;28;45458;-77
2024/01/17 13:50:54;;;;;;;;;17.75;16.25;;;;;14.40;47.02;98002.41;5012136;28;45507;-74
2024/01/17 13:53:28;;;;;;;;;17.25;15.75;;;;;14.35;47.37;98000.19;5014431;28;45513;-75
2024/01/17 13:55:56;;;;;;;;;16.75;16.75;;;;;14.47;47.83;98016.94;5016865;28;45915;-73
2024/01/17 13:58:22;;;;;;;;;14.75;13.50;;;;;14.32;47.63;97992.41;5015111;28;46307;-76
2024/01/17 14:00:48;;;;;;;;;13.00;13.00;;;;;14.36;47.34;97992.94;5014029;28;45286;-75
2024/01/17 14:03:14;;;;;;;;;13.00;11.00;;;;;14.36;47.91;98009.97;5013675;28;45368;-76
2024/01/17 14:05:39;;;;;;;;;17.25;15.75;;;;;14.29;47.57;98013.47;5015058;28;45687;-75
2024/01/17 14:08:06;;;;;;;;;12.50;12.50;;;;;14.25;47.91;98009.38;5015061;28;45368;-74
2024/01/17 14:10:31;;;;;;;;;16.75;16.25;;;;;14.30;47.96;98007.03;5014868;28;45486;-74
2024/01/17 14:12:58;;;;;;;;;16.25;15.00;;;;;14.25;47.94;98007.53;5014840;28;45437;-74
2024/01/17 14:15:25;;;;;;;;;8.00;8.00;;;;;14.15;48.18;97990.63;5015178;28;45446;-74
2024/01/17 14:17:50;;;;;;;;;19.00;14.75;;;;;14.11;47.69;98005.44;5014527;28;45321;-75
2024/01/17 14:20:19;;;;;;;;;13.50;12.50;;;;;14.07;48.34;97997.81;5014289;28;45352;-75
2024/01/17 14:22:47;;;;;;;;;13.25;13.25;;;;;14.02;48.61;98009.94;5006691;28;45324;-73
2024/01/17 14:25:14;;;;;;;;;14.00;14.00;;;;;13.94;47.88;98004.50;5013957;28;45466;-74
2024/01/17 14:27:43;;;;;;;;;17.00;15.50;;;;;13.90;48.93;98011.19;5013501;28;45301;-74
2024/01/17 14:30:13;;;;;;;;;16.75;13.25;;;;;13.89;48.62;98006.78;5014582;28;45555;-76
2024/01/17 14:32:42;;;;;;;;;11.75;10.75;;;;;13.82;48.70;98035.38;5013669;28;45292;-77
2024/01/17 14:35:09;;;;;;;;;14.00;12.75;;;;;13.82;48.90;98035.38;5034979;28;45341;-77
2024/01/17 14:37:37;;;;;;;;;13.50;13.50;;;;;13.80;48.94;98047.28;5036981;28;46451;-75
2024/01/17 14:40:04;;;;;;;;;15.00;12.50;;;;;13.80;48.80;98041.91;5015391;28;45700;-75
2024/01/17 14:42:30;;;;;;;;;17.00;17.00;;;;;13.46;48.34;98036.41;5034022;28;45256;-77
2024/01/17 14:44:55;;;;;;;;;15.25;15.00;;;;;13.39;49.11;98041.56;5016990;28;46514;-74
2024/01/17 14:47:21;;;;;;;;;19.00;15.75;;;;;13.60;49.06;98092.41;5034941;28;46470;-74
2024/01/17 14:49:48;;;;;;;;;14.00;14.00;;;;;13.29;49.40;98074.91;5035478;28;45355;-74
2024/01/17 14:52:14;;;;;;;;;12.00;11.75;;;;;13.27;48.71;98071.56;5036306;28;45410;-76
2024/01/17 14:54:40;;;;;;;;;15.75;15.75;;;;;13.35;48.65;98082.41;5032896;28;45383;-75
2024/01/17 14:57:05;;;;;;;;;8.75;6.25;;;;;13.34;47.79;98083.38;5038231;28;45522;-74
2024/01/17 14:59:31;;;;;;;;;5.00;5.00;;;;;13.19;47.43;98083.03;5017887;28;45406;-77
2024/01/17 15:01:57;;;;;;;;;9.50;8.25;;;;;13.16;47.92;98086.91;5016472;28;45355;-74
2024/01/17 15:04:22;;;;;;;;;12.00;11.00;;;;;13.08;48.21;98067.09;5035337;28;45537;-75
2024/01/17 15:06:47;;;;;;;;;9.50;9.50;;;;;13.21;48.15;98094.50;5034692;28;45359;-73
2024/01/17 15:09:16;;;;;;;;;7.00;7.00;;;;;13.12;48.30;98082.78;5033603;28;45371;-75
2024/01/17 15:11:45;;;;;;;;;10.50;9.00;;;;;12.98;47.84;98079.75;5015686;28;45448;-75
2024/01/17 15:14:11;;;;;;;;;7.50;7.50;;;;;13.07;48.16;98106.59;5034031;28;45530;-74
2024/01/17 15:16:37;;;;;;;;;4.50;4.50;;;;;13.08;48.50;98108.31;5033856;28;46595;-73
2024/01/17 15:19:03;;;;;;;;;9.75;9.75;;;;;13.02;48.71;98108.03;5033855;28;45397;-74
2024/01/17 15:21:29;;;;;;;;;10.25;10.25;;;;;13.12;48.46;98112.38;5033183;28;45336;-71
2024/01/17 15:23:55;;;;;;;;;9.25;9.25;;;;;13.01;48.11;98101.84;5033208;28;45292;-75
2024/01/17 15:26:20;;;;;;;;;9.75;9.25;;;;;13.05;48.22;98126.56;5033264;28;46122;-75
2024/01/17 15:28:45;;;;;;;;;10.00;7.00;;;;;12.78;48.28;98124.72;5033872;28;45393;-73
2024/01/17 15:31:11;;;;;;;;;7.25;7.00;;;;;12.81;48.87;98121.75;5032577;28;45529;-74
2024/01/17 15:33:38;;;;;;;;;7.75;7.75;;;;;12.85;49.26;98128.50;5030474;28;45574;-74
2024/01/17 15:36:05;;;;;;;;;7.75;7.75;;;;;12.71;49.21;98129.84;5015617;28;48250;-76
2024/01/17 15:38:31;;;;;;;;;7.00;7.00;;;;;12.66;48.32;98110.63;5025565;28;45530;-74
2024/01/17 15:40:59;;;;;;;;;8.75;8.75;;;;;12.49;48.90;98124.84;5033487;28;45531;-75
2024/01/17 15:43:28;;;;;;;;;8.00;8.00;;;;;12.60;48.90;98150.66;5033149;28;45230;-75
2024/01/17 15:45:56;;;;;;;;;9.00;9.00;;;;;12.52;49.42;98136.13;5033262;28;45998;-75
2024/01/17 15:48:22;;;;;;;;;10.50;9.00;;;;;12.60;49.02;98164.94;5030349;28;45382;-75
2024/01/17 15:50:47;;;;;;;;;9.00;9.00;;;;;12.61;48.98;98174.72;5032915;28;45520;-74
2024/01/17 15:53:14;;;;;;;;;10.00;10.00;;;;;12.73;49.14;98199.59;5033715;28;45466;-74
2024/01/17 15:55:40;;;;;;;;;10.75;9.75;;;;;12.46;49.44;98198.53;5032073;28;46533;-73
2024/01/17 15:58:06;;;;;;;;;7.00;7.00;;;;;12.38;49.30;98203.75;5033328;28;45337;-76
2024/01/17 16:00:31;;;;;;;;;10.25;10.00;;;;;12.43;49.22;98181.81;5033065;28;45375;-74
2024/01/17 16:02:57;;;;;;;;;9.75;9.50;;;;;12.29;49.15;98188.50;5032876;28;45557;-75
2024/01/17 16:05:22;;;;;;;;;9.75;9.75;;;;;12.19;49.16;98213.66;5033024;28;46035;-74
2024/01/17 16:07:47;;;;;;;;;9.00;9.00;;;;;12.31;49.63;98228.66;5033075;28;45381;-74
2024/01/17 16:10:13;;;;;;;;;9.75;9.75;;;;;12.24;49.35;98225.69;5033190;28;52110;-76
2024/01/17 16:12:39;;;;;;;;;9.00;9.00;;;;;12.21;49.20;98250.16;5032813;28;45840;-75
2024/01/17 16:15:04;;;;;;;;;9.50;9.50;;;;;12.21;49.23;98236.72;5032703;28;46436;-74
2024/01/17 16:17:30;;;;;;;;;9.25;7.00;;;;;12.18;49.15;98236.13;5014509;28;45622;-74
2024/01/17 16:19:55;;;;;;;;;9.00;7.00;;;;;12.20;49.14;98243.09;5033044;28;45352;-73
2024/01/17 16:22:24;;;;;;;;;10.25;9.50;;;;;12.19;49.37;98246.75;5033082;28;45351;-77
2024/01/17 16:24:50;;;;;;;;;9.00;9.00;;;;;12.05;49.29;98223.00;5033183;28;46464;-76
2024/01/17 16:27:15;;;;;;;;;10.00;10.00;;;;;12.20;49.13;98251.13;5036242;28;45494;-74
2024/01/17 16:29:41;;;;;;;;;10.50;10.50;;;;;12.18;49.46;98245.06;5036210;28;45772;-75
2024/01/17 16:32:06;;;;;;;;;9.00;9.00;;;;;12.28;49.45;98255.81;5036055;28;45629;-74
2024/01/17 16:34:32;;;;;;;;;10.00;10.00;;;;;12.16;49.30;98259.63;5035487;28;57200;-75
2024/01/17 16:36:58;;;;;;;;;10.00;10.00;;;;;12.18;49.71;98246.88;5035810;28;45265;-74
2024/01/17 16:39:23;;;;;;;;;9.00;9.00;;;;;12.36;49.46;98259.47;5017952;28;45442;-74
2024/01/17 16:41:49;;;;;;;;;9.50;9.50;;;;;12.46;49.31;98280.97;5036056;28;45739;-76
2024/01/17 16:44:14;;;;;;;;;10.00;10.00;;;;;12.33;49.21;98275.91;5017620;28;47469;-74
2024/01/17 16:46:40;;;;;;;;;10.50;10.50;;;;;12.30;49.69;98267.25;5036292;28;48531;-75